Pollock, Missouri
Current Conditions -  °F | °C
As of 10:35 AM on Friday 24 Oct 2014 (Local Time) from KTVK Reporting Station
Haze Haze  
Wind Chill: 57°   Ceiling: NA
Heat Index: 57°   Visibility: 3mi
Dew Point: 57°   Wind: 8mph
Humidity: 100%   Direction: 160°SSE
Pressure: 30.04"   Gusts: NA
Location:  40.36°N, 93.08°W
Report Text: KTVK 241535Z AUTO 16007KT 3SM BR 14/14 A3004 RMK AO2
Loading
Personal Weather Stations






























Interactive Weather Map
Tropical Storm Tracking
New forecast layout! Learn more

10-Day Weather Forecast

Advertisements
Track Severe Weather on mobile